createdAt,value
2022-08-21T00:02:37.641Z,15.87
2022-08-21T00:05:44.324Z,16.92
2022-08-21T00:08:47.602Z,16.50
2022-08-21T00:11:50.808Z,16.27
2022-08-21T00:14:57.044Z,17.33
2022-08-21T00:18:01.550Z,14.90
2022-08-21T00:21:05.307Z,14.18
2022-08-21T00:24:08.467Z,14.55
2022-08-21T00:27:11.759Z,14.38
2022-08-21T00:30:22.834Z,15.87
2022-08-21T00:33:26.992Z,15.57
2022-08-21T00:36:30.778Z,14.40
2022-08-21T00:39:34.025Z,14.82
2022-08-21T00:42:37.885Z,15.38
2022-08-21T00:45:41.316Z,15.33
2022-08-21T00:48:44.619Z,14.93
2022-08-21T00:51:59.053Z,16.33
2022-08-21T00:55:03.014Z,15.05
2022-08-21T00:58:10.641Z,16.35
2022-08-21T01:01:14.237Z,16.00
2022-08-21T01:04:17.836Z,16.97
2022-08-21T01:07:21.129Z,17.25
2022-08-21T01:10:26.358Z,17.80
2022-08-21T01:13:32.452Z,17.70
2022-08-21T01:16:35.692Z,18.93
2022-08-21T01:19:39.352Z,18.50
2022-08-21T01:22:43.113Z,17.35
2022-08-21T01:25:46.350Z,18.15
2022-08-21T01:29:03.476Z,17.30
2022-08-21T01:32:13.526Z,17.57
2022-08-21T01:35:19.911Z,18.20
2022-08-21T01:38:23.773Z,16.98
2022-08-21T01:41:26.978Z,16.50
2022-08-21T01:44:30.328Z,16.83
2022-08-21T01:47:33.675Z,16.37
2022-08-21T01:50:37.292Z,16.97
2022-08-21T01:53:40.736Z,16.88
2022-08-21T01:56:48.508Z,17.50
2022-08-21T01:59:51.702Z,18.63
2022-08-21T02:02:54.978Z,16.40
2022-08-21T02:05:58.910Z,17.33
2022-08-21T02:09:04.165Z,17.95
2022-08-21T02:12:07.683Z,18.00
2022-08-21T02:15:11.064Z,17.80
2022-08-21T02:18:14.523Z,16.60
2022-08-21T02:21:17.964Z,17.43
2022-08-21T02:24:21.276Z,17.80
2022-08-21T02:27:27.217Z,19.35
2022-08-21T02:30:38.595Z,18.52
2022-08-21T02:33:41.959Z,20.20
2022-08-21T02:36:45.216Z,18.97
2022-08-21T02:40:03.954Z,19.83
2022-08-21T02:43:08.495Z,19.52
2022-08-21T02:46:19.836Z,20.10
2022-08-21T02:49:23.251Z,20.70
2022-08-21T02:52:26.475Z,20.20
2022-08-21T02:55:35.944Z,22.92
2022-08-21T02:58:42.784Z,22.25
2022-08-21T03:01:48.510Z,23.13
2022-08-21T03:04:52.193Z,21.77
2022-08-21T03:07:55.831Z,21.47
2022-08-21T03:11:00.777Z,20.65
2022-08-21T03:14:04.139Z,18.17
2022-08-21T03:17:08.132Z,17.30
2022-08-21T03:20:12.357Z,17.33
2022-08-21T03:23:19.118Z,17.03
2022-08-21T03:26:22.885Z,16.67
2022-08-21T03:29:27.271Z,13.40
2022-08-21T03:32:32.416Z,13.88
2022-08-21T03:35:35.888Z,12.73
2022-08-21T03:38:39.622Z,13.23
2022-08-21T03:41:45.435Z,12.90
2022-08-21T03:44:48.602Z,14.05
2022-08-21T03:47:57.389Z,12.48
2022-08-21T03:51:00.603Z,14.67
2022-08-21T03:54:04.462Z,16.03
2022-08-21T03:57:07.836Z,15.95
2022-08-21T04:00:13.332Z,16.55
2022-08-21T04:03:17.114Z,14.52
2022-08-21T04:06:20.407Z,13.67
2022-08-21T04:09:24.566Z,13.80
2022-08-21T04:12:27.857Z,12.25
2022-08-21T04:15:31.350Z,11.07
2022-08-21T04:18:34.889Z,9.73
2022-08-21T04:21:39.140Z,9.63
2022-08-21T04:24:43.154Z,9.40
2022-08-21T04:27:47.005Z,8.35
2022-08-21T04:30:51.321Z,8.32
2022-08-21T04:33:54.524Z,8.77
2022-08-21T04:36:57.670Z,8.37
2022-08-21T04:40:01.546Z,7.97
2022-08-21T04:43:12.765Z,8.02
2022-08-21T04:46:15.996Z,8.20
2022-08-21T04:49:19.184Z,8.82
2022-08-21T04:52:24.381Z,8.13
2022-08-21T04:55:28.891Z,7.90
2022-08-21T04:58:34.114Z,7.80
2022-08-21T05:01:40.833Z,7.57
2022-08-21T05:04:49.726Z,7.88
2022-08-21T05:07:54.225Z,8.10
2022-08-21T05:11:00.467Z,6.97
2022-08-21T05:14:04.187Z,6.80
2022-08-21T05:17:07.675Z,6.60
2022-08-21T05:20:12.981Z,5.93
2022-08-21T05:23:16.752Z,6.07
2022-08-21T05:26:19.983Z,5.93
2022-08-21T05:29:23.743Z,5.80
2022-08-21T05:32:28.732Z,5.97
2022-08-21T05:35:33.258Z,5.07
2022-08-21T05:38:36.544Z,4.70
2022-08-21T05:41:39.709Z,5.53
2022-08-21T05:44:43.744Z,4.53
2022-08-21T05:47:48.541Z,4.70
2022-08-21T05:50:53.110Z,6.20
2022-08-21T05:53:56.311Z,4.90
2022-08-21T05:56:59.579Z,4.77
2022-08-21T06:00:04.227Z,4.22
2022-08-21T06:03:27.963Z,4.72
2022-08-21T06:06:31.127Z,4.15
2022-08-21T06:09:34.931Z,4.37
2022-08-21T06:12:38.260Z,4.40
2022-08-21T06:15:45.745Z,5.18
2022-08-21T06:18:49.424Z,4.57
2022-08-21T06:21:53.003Z,5.38
2022-08-21T06:24:56.264Z,5.53
2022-08-21T06:28:08.374Z,6.10
2022-08-21T06:31:14.392Z,5.88
2022-08-21T06:34:18.804Z,4.40
2022-08-21T06:37:22.043Z,5.68
2022-08-21T06:40:26.426Z,5.93
2022-08-21T06:43:39.437Z,5.90
2022-08-21T06:46:43.302Z,6.68
2022-08-21T06:49:50.995Z,6.90
2022-08-21T06:53:16.555Z,6.93
2022-08-21T06:56:20.335Z,6.97
2022-08-21T06:59:23.509Z,7.70
2022-08-21T07:02:27.202Z,8.10
2022-08-21T07:05:31.520Z,7.20
2022-08-21T07:08:35.930Z,7.60
2022-08-21T07:11:47.586Z,8.10
2022-08-21T07:14:51.037Z,8.23
2022-08-21T07:17:54.189Z,8.60
2022-08-21T07:20:57.578Z,8.63
2022-08-21T07:24:00.925Z,7.95
2022-08-21T07:27:08.196Z,8.73
2022-08-21T07:30:13.354Z,8.40
2022-08-21T07:33:16.563Z,9.32
2022-08-21T07:36:19.875Z,8.32
2022-08-21T07:39:23.101Z,8.73
2022-08-21T07:42:26.276Z,8.50
2022-08-21T07:45:30.841Z,8.13
2022-08-21T07:48:34.493Z,9.45
2022-08-21T07:51:37.784Z,8.70
2022-08-21T07:54:40.949Z,8.50
2022-08-21T07:57:45.248Z,9.00
2022-08-21T08:00:48.467Z,9.93
2022-08-21T08:03:52.280Z,9.55
2022-08-21T08:06:55.431Z,9.05
2022-08-21T08:09:59.457Z,9.15
2022-08-21T08:13:02.752Z,8.87
2022-08-21T08:16:06.175Z,9.50
2022-08-21T08:19:09.512Z,10.35
2022-08-21T08:22:22.168Z,9.70
2022-08-21T08:25:27.060Z,10.77
2022-08-21T08:28:32.641Z,10.10
2022-08-21T08:31:35.865Z,10.70
2022-08-21T08:34:40.490Z,10.48
2022-08-21T08:37:45.958Z,10.88
2022-08-21T08:41:15.221Z,10.60
2022-08-21T08:44:20.135Z,11.40
2022-08-21T08:47:24.944Z,11.40
2022-08-21T08:50:48.494Z,12.55
2022-08-21T08:53:56.790Z,12.43
2022-08-21T08:57:04.268Z,13.23
2022-08-21T09:00:12.889Z,13.30
2022-08-21T09:03:18.039Z,13.20
2022-08-21T09:06:44.234Z,12.80
2022-08-21T09:10:04.508Z,13.93
2022-08-21T09:13:42.140Z,14.43
2022-08-21T09:16:57.953Z,13.47
2022-08-21T09:20:33.815Z,14.67
2022-08-21T09:23:53.392Z,13.52
2022-08-21T09:27:08.900Z,13.65
2022-08-21T09:30:13.222Z,13.50
2022-08-21T09:33:18.385Z,14.07
2022-08-21T09:36:32.255Z,14.30
2022-08-21T09:39:43.502Z,13.80
2022-08-21T09:42:59.260Z,14.27
2022-08-21T09:46:12.787Z,13.60
2022-08-21T09:49:29.353Z,13.10
2022-08-21T09:52:32.640Z,13.17
2022-08-21T09:55:58.028Z,13.75
2022-08-21T09:59:01.221Z,14.77
2022-08-21T10:02:19.984Z,14.30
2022-08-21T10:05:27.044Z,14.90
2022-08-21T10:08:30.857Z,15.20
2022-08-21T10:11:35.442Z,13.95
2022-08-21T10:15:10.873Z,14.63
2022-08-21T10:18:28.025Z,13.80
2022-08-21T10:21:45.118Z,13.13
2022-08-21T10:25:15.403Z,14.43
2022-08-21T10:28:44.434Z,13.45
2022-08-21T10:31:54.012Z,14.23
2022-08-21T10:35:05.878Z,14.80
2022-08-21T10:39:07.348Z,15.07
2022-08-21T10:42:29.870Z,14.70
2022-08-21T10:45:58.652Z,15.32
2022-08-21T10:49:19.867Z,15.57
2022-08-21T10:53:03.519Z,16.48
2022-08-21T10:56:26.056Z,15.00
2022-08-21T10:59:52.927Z,16.07
2022-08-21T11:03:16.661Z,15.85
2022-08-21T11:06:24.762Z,16.77
2022-08-21T11:09:29.076Z,15.75
2022-08-21T11:12:47.508Z,16.37
2022-08-21T11:16:37.373Z,16.87
2022-08-21T11:20:04.121Z,15.00
2022-08-21T11:23:20.331Z,15.45
2022-08-21T11:26:42.885Z,15.65
2022-08-21T11:29:50.879Z,13.10
2022-08-21T11:33:22.848Z,13.43
2022-08-21T11:36:41.279Z,13.50
2022-08-21T11:40:04.497Z,13.02
2022-08-21T11:43:34.769Z,13.23
2022-08-21T11:47:10.081Z,13.10
2022-08-21T11:50:34.210Z,13.20
2022-08-21T11:53:54.245Z,12.50
2022-08-21T11:57:12.795Z,12.18
2022-08-21T12:00:26.528Z,11.60
2022-08-21T12:03:34.843Z,11.87
2022-08-21T12:06:41.264Z,12.83
2022-08-21T12:09:55.276Z,13.68
2022-08-21T12:13:09.407Z,12.13
2022-08-21T12:16:29.321Z,12.10
2022-08-21T12:19:33.525Z,12.03
2022-08-21T12:22:42.103Z,10.90
2022-08-21T12:26:14.721Z,11.40
2022-08-21T12:29:30.573Z,12.25
2022-08-21T12:32:44.504Z,12.15
2022-08-21T12:35:50.595Z,12.73
2022-08-21T12:39:07.369Z,12.90
2022-08-21T12:42:28.843Z,13.98
2022-08-21T12:45:34.060Z,12.30
2022-08-21T12:48:55.205Z,13.68
2022-08-21T12:52:18.082Z,12.27
2022-08-21T12:55:31.220Z,12.63
2022-08-21T12:58:34.632Z,13.38
2022-08-21T13:01:48.871Z,11.65
2022-08-21T13:04:54.036Z,12.88
2022-08-21T13:07:57.994Z,12.93
2022-08-21T13:11:09.178Z,12.03
2022-08-21T13:14:45.982Z,11.30
2022-08-21T13:17:52.597Z,9.85
2022-08-21T13:21:11.094Z,10.02
2022-08-21T13:24:42.773Z,12.53
2022-08-21T13:28:08.091Z,10.83
2022-08-21T13:31:11.970Z,10.98
2022-08-21T13:34:17.060Z,10.07
2022-08-21T13:37:22.765Z,10.25
2022-08-21T13:40:33.688Z,10.87
2022-08-21T13:43:40.544Z,7.90
2022-08-21T13:46:45.175Z,7.30
2022-08-21T13:49:53.018Z,7.80
2022-08-21T13:53:05.944Z,5.15
2022-08-21T13:56:09.419Z,5.50
2022-08-21T13:59:12.660Z,5.30
2022-08-21T14:02:23.299Z,5.20
2022-08-21T14:05:32.528Z,5.18
2022-08-21T14:08:42.129Z,4.72
2022-08-21T14:11:45.420Z,5.30
2022-08-21T14:14:48.728Z,5.37
2022-08-21T14:17:52.621Z,6.00
2022-08-21T14:21:10.327Z,5.22
2022-08-21T14:24:28.984Z,5.53
2022-08-21T14:27:33.414Z,5.43
2022-08-21T14:30:39.120Z,5.50
2022-08-21T14:33:44.097Z,5.20
2022-08-21T14:36:48.244Z,5.55
2022-08-21T14:39:52.195Z,5.25
2022-08-21T14:42:56.066Z,4.83
2022-08-21T14:45:59.359Z,5.30
2022-08-21T14:49:03.502Z,4.82
2022-08-21T14:52:06.788Z,4.55
2022-08-21T14:55:14.744Z,5.00
2022-08-21T14:58:17.990Z,4.77
2022-08-21T15:01:23.194Z,5.70
2022-08-21T15:04:26.696Z,5.78
2022-08-21T15:07:29.907Z,5.68
2022-08-21T15:10:35.214Z,5.45
2022-08-21T15:13:38.903Z,5.50
2022-08-21T15:16:42.916Z,5.10
2022-08-21T15:19:46.144Z,4.53
2022-08-21T15:22:49.355Z,5.13
2022-08-21T15:25:54.266Z,5.10
2022-08-21T15:28:57.832Z,5.77
2022-08-21T15:32:15.555Z,5.23
2022-08-21T15:35:19.495Z,5.40
2022-08-21T15:38:22.908Z,5.00
2022-08-21T15:41:26.095Z,5.43
2022-08-21T15:44:30.149Z,5.83
2022-08-21T15:47:36.666Z,4.80
2022-08-21T15:50:39.892Z,5.25
2022-08-21T15:53:43.280Z,4.60
2022-08-21T15:56:49.468Z,5.30
2022-08-21T15:59:57.112Z,5.10
2022-08-21T16:03:03.997Z,4.43
2022-08-21T16:06:07.765Z,5.00
2022-08-21T16:09:11.542Z,4.68
2022-08-21T16:12:34.361Z,5.07
2022-08-21T16:15:37.706Z,6.90
2022-08-21T16:18:41.525Z,5.37
2022-08-21T16:21:45.103Z,5.05
2022-08-21T16:24:48.243Z,4.30
2022-08-21T16:27:58.980Z,4.32
2022-08-21T16:31:03.218Z,4.50
2022-08-21T16:34:06.547Z,6.27
2022-08-21T16:37:09.915Z,4.60
2022-08-21T16:40:13.944Z,4.53
2022-08-21T16:43:17.570Z,4.45
2022-08-21T16:46:21.880Z,4.30
2022-08-21T16:49:25.077Z,4.47
2022-08-21T16:52:28.304Z,7.93
2022-08-21T16:55:31.602Z,4.43
2022-08-21T16:58:37.372Z,5.22
2022-08-21T17:01:40.993Z,5.03
2022-08-21T17:04:44.176Z,4.40
2022-08-21T17:07:47.491Z,4.30
2022-08-21T17:10:51.788Z,4.30
2022-08-21T17:13:57.771Z,4.20
2022-08-21T17:17:03.388Z,4.70
2022-08-21T17:20:07.699Z,4.30
2022-08-21T17:23:11.310Z,4.90
2022-08-21T17:26:16.985Z,4.60
2022-08-21T17:29:27.772Z,5.03
2022-08-21T17:32:31.818Z,5.00
2022-08-21T17:35:35.109Z,5.10
2022-08-21T17:38:38.267Z,5.80
2022-08-21T17:41:42.477Z,5.30
2022-08-21T17:44:46.653Z,5.20
2022-08-21T17:47:49.983Z,4.70
2022-08-21T17:50:53.401Z,5.00
2022-08-21T17:53:57.229Z,5.10
2022-08-21T17:57:01.141Z,4.70
2022-08-21T18:00:07.894Z,4.97
2022-08-21T18:03:21.341Z,4.80
2022-08-21T18:06:25.667Z,5.30
2022-08-21T18:09:29.120Z,5.38
2022-08-21T18:12:33.981Z,5.22
2022-08-21T18:15:37.585Z,5.32
2022-08-21T18:18:43.563Z,4.63
2022-08-21T18:21:47.168Z,4.60
2022-08-21T18:24:50.390Z,4.10
2022-08-21T18:27:53.638Z,4.20
2022-08-21T18:30:57.365Z,4.20
2022-08-21T18:34:27.236Z,4.47
2022-08-21T18:37:50.255Z,4.10
2022-08-21T18:41:13.374Z,4.75
2022-08-21T18:44:36.799Z,5.03
2022-08-21T18:47:59.900Z,5.70
2022-08-21T18:51:04.599Z,6.13
2022-08-21T18:54:12.924Z,5.67
2022-08-21T18:57:16.920Z,5.47
2022-08-21T19:00:25.288Z,6.18
2022-08-21T19:03:28.683Z,5.57
2022-08-21T19:06:33.020Z,5.40
2022-08-21T19:09:36.493Z,5.83
2022-08-21T19:12:41.581Z,6.07
2022-08-21T19:15:49.889Z,5.80
2022-08-21T19:18:54.365Z,5.80
2022-08-21T19:22:01.436Z,5.97
2022-08-21T19:25:07.124Z,5.20
2022-08-21T19:28:15.213Z,7.22
2022-08-21T19:31:25.935Z,5.80
2022-08-21T19:34:29.857Z,6.00
2022-08-21T19:37:32.976Z,5.73
2022-08-21T19:40:39.872Z,5.77
2022-08-21T19:43:52.316Z,6.13
2022-08-21T19:46:59.983Z,6.15
2022-08-21T19:50:17.543Z,5.88
2022-08-21T19:53:21.489Z,5.80
2022-08-21T19:56:27.125Z,6.50
2022-08-21T19:59:31.082Z,6.85
2022-08-21T20:02:34.401Z,6.65
2022-08-21T20:05:39.748Z,6.30
2022-08-21T20:08:44.428Z,5.90
2022-08-21T20:11:51.265Z,5.80
2022-08-21T20:14:55.458Z,5.85
2022-08-21T20:17:59.427Z,5.70
2022-08-21T20:21:02.927Z,5.68
2022-08-21T20:24:08.844Z,6.33
2022-08-21T20:27:19.356Z,5.77
2022-08-21T20:30:23.255Z,6.13
2022-08-21T20:33:26.587Z,6.10
2022-08-21T20:36:30.084Z,5.97
2022-08-21T20:39:33.417Z,6.33
2022-08-21T20:42:44.936Z,5.97
2022-08-21T20:45:49.281Z,5.60
2022-08-21T20:48:53.750Z,6.10
2022-08-21T20:52:00.840Z,5.82
2022-08-21T20:55:14.267Z,5.70
2022-08-21T21:01:55.709Z,5.88
2022-08-21T21:05:16.956Z,5.82
2022-08-21T21:08:29.550Z,5.00
2022-08-21T21:15:23.398Z,5.17
2022-08-21T21:19:00.350Z,5.32
2022-08-21T21:22:15.635Z,5.35
2022-08-21T21:25:40.599Z,6.20
2022-08-21T21:28:58.082Z,5.40
2022-08-21T21:32:03.693Z,5.73
2022-08-21T21:35:11.143Z,5.18
2022-08-21T21:38:51.664Z,5.10
2022-08-21T21:42:04.121Z,4.65
2022-08-21T21:45:30.813Z,4.67
2022-08-21T21:52:43.551Z,4.80
2022-08-21T21:55:49.602Z,5.03
2022-08-21T21:59:08.488Z,5.00
2022-08-21T22:02:48.165Z,5.20
2022-08-21T22:06:04.411Z,5.50
2022-08-21T22:09:34.789Z,5.40
2022-08-21T22:12:50.144Z,5.57
2022-08-21T22:15:57.479Z,5.22
2022-08-21T22:19:23.853Z,5.70
2022-08-21T22:22:29.993Z,6.20
2022-08-21T22:25:41.741Z,6.03
2022-08-21T22:28:49.659Z,6.28
2022-08-21T22:32:10.490Z,5.65
2022-08-21T22:35:24.085Z,6.40
2022-08-21T22:38:27.373Z,6.30
2022-08-21T22:41:37.673Z,6.15
2022-08-21T22:44:53.670Z,5.88
2022-08-21T22:48:05.860Z,6.13
2022-08-21T22:51:38.925Z,6.20
2022-08-21T22:54:45.228Z,7.27
2022-08-21T22:57:59.441Z,6.93
2022-08-21T23:01:20.777Z,6.00
2022-08-21T23:04:25.683Z,6.35
2022-08-21T23:07:43.060Z,6.73
2022-08-21T23:10:48.230Z,6.30
2022-08-21T23:13:53.484Z,6.50
2022-08-21T23:17:15.959Z,5.72
2022-08-21T23:20:45.599Z,5.90
2022-08-21T23:24:27.841Z,6.73
2022-08-21T23:27:48.831Z,5.83
2022-08-21T23:31:27.452Z,6.60
2022-08-21T23:34:54.429Z,6.38
2022-08-21T23:38:09.371Z,6.43
2022-08-21T23:41:34.633Z,6.57
2022-08-21T23:44:44.083Z,6.23
2022-08-21T23:47:51.172Z,6.60
2022-08-21T23:51:00.390Z,5.60
2022-08-21T23:54:34.997Z,6.00
2022-08-21T23:57:53.356Z,6.93
